Time;durP1;ratioP1;P1;durP2;ratioP2;P2;SDS_P1;SDS_P2;PMS_P1;PMS_P2;Temp;Humidity;BMP_temperature;BMP_pressure;BME280_temperature;BME280_humidity;BME280_pressure;Samples;Min_cycle;Max_cycle;Signal;HPM_P1;HPM_P2
2022/12/22 03:28:05;;;;;;;401.27;381.00;;;8.00;99.90;;;;;;5073314;28;20446;-64
2022/12/22 03:30:31;;;;;;;408.92;388.40;;;8.00;99.90;;;;;;5056907;28;20384;-64
2022/12/22 03:32:57;;;;;;;426.23;404.52;;;8.00;99.90;;;;;;5056574;28;20376;-64
2022/12/22 03:35:23;;;;;;;410.90;389.73;;;8.00;99.90;;;;;;5073475;28;20452;-64
2022/12/22 03:37:48;;;;;;;393.92;373.95;;;7.90;99.90;;;;;;5056477;28;20406;-64
2022/12/22 03:40:14;;;;;;;394.63;374.40;;;7.90;99.90;;;;;;5072845;28;20422;-64
2022/12/22 03:48:27;;;;;;;426.00;404.40;;;7.80;99.90;;;;;;4991385;28;20713;-64
2022/12/22 03:50:53;;;;;;;403.27;382.33;;;7.80;99.90;;;;;;5022992;28;20388;-64
2022/12/22 03:53:19;;;;;;;398.50;378.00;;;7.80;99.90;;;;;;5074133;28;20540;-64
2022/12/22 03:55:44;;;;;;;381.23;361.63;;;7.90;99.90;;;;;;5057247;28;20421;-64
2022/12/22 03:58:10;;;;;;;401.53;380.97;;;7.90;99.90;;;;;;5074380;28;20397;-64
2022/12/22 04:00:35;;;;;;;406.60;385.87;;;8.00;99.90;;;;;;5057204;28;20481;-64
2022/12/22 04:03:00;;;;;;;384.63;365.27;;;8.00;99.90;;;;;;5057202;28;20395;-64
2022/12/22 04:05:27;;;;;;;395.30;375.20;;;8.00;99.90;;;;;;5056287;28;20399;-64
2022/12/22 04:07:52;;;;;;;377.77;358.80;;;7.90;99.90;;;;;;5055153;28;20407;-64
2022/12/22 04:13:01;;;;;;;400.10;379.88;;;7.90;99.90;;;;;;5073409;28;20398;-64
2022/12/22 04:15:30;;;;;;;399.42;379.05;;;7.90;99.90;;;;;;5055468;28;20475;-64
2022/12/22 04:17:56;;;;;;;393.65;373.63;;;8.00;99.90;;;;;;5053856;28;20399;-64
2022/12/22 04:20:25;;;;;;;417.50;395.90;;;8.00;99.90;;;;;;5070134;28;20391;-64
2022/12/22 04:22:52;;;;;;;411.40;390.25;;;8.00;99.90;;;;;;5050493;28;20458;-64
2022/12/22 04:25:18;;;;;;;395.35;375.40;;;8.00;99.90;;;;;;5068152;28;20656;-63
2022/12/22 04:28:20;;;;;;;417.20;395.67;;;8.10;99.90;;;;;;5054496;28;20799;-64
2022/12/22 04:30:48;;;;;;;412.25;391.40;;;8.10;99.90;;;;;;5052686;28;20383;-64
2022/12/22 04:33:14;;;;;;;407.67;386.98;;;8.20;99.90;;;;;;5054352;28;20380;-64
2022/12/22 04:35:39;;;;;;;419.48;397.95;;;8.10;99.90;;;;;;5072576;28;20775;-64
2022/12/22 04:38:05;;;;;;;420.97;399.53;;;8.10;99.90;;;;;;5057342;28;20411;-64
2022/12/22 04:40:30;;;;;;;415.30;394.20;;;8.10;99.90;;;;;;5073179;28;20784;-64
2022/12/22 04:42:57;;;;;;;425.20;403.70;;;8.20;99.90;;;;;;5055800;28;20384;-63
2022/12/22 04:45:23;;;;;;;408.93;387.93;;;8.20;99.90;;;;;;5056013;28;20485;-64
2022/12/22 04:47:48;;;;;;;426.43;404.83;;;8.20;99.90;;;;;;5055845;28;20760;-64
2022/12/22 04:50:14;;;;;;;411.75;390.75;;;8.20;99.90;;;;;;5054493;28;20392;-64
2022/12/22 04:52:39;;;;;;;412.20;391.23;;;8.30;99.90;;;;;;5054136;28;20398;-64
2022/12/22 04:55:05;;;;;;;416.67;395.53;;;8.20;99.90;;;;;;5054088;28;20403;-64
2022/12/22 04:57:31;;;;;;;409.03;388.17;;;8.30;99.90;;;;;;5071601;28;20387;-64
2022/12/22 04:59:56;;;;;;;410.77;390.20;;;8.30;99.90;;;;;;5054967;28;20388;-64
2022/12/22 05:02:22;;;;;;;406.83;386.27;;;8.30;99.90;;;;;;5054260;28;20392;-64
2022/12/22 05:04:48;;;;;;;394.05;374.10;;;8.30;99.90;;;;;;5055198;28;20383;-65
2022/12/22 05:07:13;;;;;;;407.05;386.65;;;8.30;99.90;;;;;;5054323;28;20419;-64
2022/12/22 05:09:39;;;;;;;397.97;377.63;;;8.30;99.90;;;;;;5053018;28;20503;-64
2022/12/22 05:12:53;;;;;;;385.47;366.17;;;8.30;99.90;;;;;;5052927;28;20788;-64
2022/12/22 05:14:50;;;;;;;386.83;367.45;;;8.20;99.90;;;;;;5069895;28;20396;-64
2022/12/22 05:17:16;;;;;;;428.27;406.35;;;8.10;99.90;;;;;;5051389;28;20651;-64
2022/12/22 05:19:41;;;;;;;424.13;402.38;;;8.10;99.90;;;;;;5049912;28;20402;-64
2022/12/22 05:22:07;;;;;;;430.50;408.43;;;8.10;99.90;;;;;;5049478;28;20406;-64
2022/12/22 05:24:32;;;;;;;411.10;390.23;;;8.10;99.90;;;;;;5048210;28;20496;-64
2022/12/22 05:26:58;;;;;;;422.65;400.88;;;8.10;99.90;;;;;;5065754;28;20528;-64
2022/12/22 05:29:24;;;;;;;406.73;385.87;;;8.10;99.90;;;;;;5044589;28;20551;-64
2022/12/22 05:31:49;;;;;;;411.50;390.33;;;8.10;99.90;;;;;;5043460;28;20379;-65
2022/12/22 05:34:14;;;;;;;414.55;393.67;;;8.10;99.90;;;;;;5046703;28;20399;-65
2022/12/22 05:36:40;;;;;;;428.93;406.87;;;8.10;99.90;;;;;;5049942;28;20403;-65
2022/12/22 05:39:05;;;;;;;417.20;395.93;;;8.10;99.90;;;;;;5065773;28;20471;-65
2022/12/22 05:41:31;;;;;;;429.17;407.13;;;8.10;99.90;;;;;;5067360;28;20394;-65
2022/12/22 05:43:56;;;;;;;411.00;389.97;;;8.10;99.90;;;;;;5050589;28;20398;-64
2022/12/22 05:46:22;;;;;;;405.58;384.67;;;8.00;99.90;;;;;;5049436;28;20595;-64
2022/12/22 05:48:48;;;;;;;404.02;383.42;;;8.00;99.90;;;;;;5066688;28;20585;-64
2022/12/22 05:51:13;;;;;;;411.30;390.30;;;7.90;99.90;;;;;;5047252;28;20411;-64
2022/12/22 05:53:39;;;;;;;406.47;385.80;;;7.90;99.90;;;;;;5049477;28;20744;-64
2022/12/22 05:56:05;;;;;;;367.57;348.73;;;7.90;99.90;;;;;;5049639;28;20391;-63
2022/12/22 05:58:31;;;;;;;360.60;342.25;;;7.90;99.90;;;;;;5049684;28;20520;-63
2022/12/22 06:00:58;;;;;;;392.42;371.98;;;7.90;99.90;;;;;;5068209;28;20413;-63
2022/12/22 06:03:25;;;;;;;393.50;372.90;;;8.00;99.90;;;;;;5050819;28;20417;-64
2022/12/22 06:05:50;;;;;;;383.88;364.38;;;7.90;99.90;;;;;;5050511;28;20538;-64
2022/12/22 06:08:16;;;;;;;374.00;354.97;;;8.00;99.90;;;;;;5050599;28;20407;-64
2022/12/22 06:10:41;;;;;;;348.87;330.97;;;7.90;99.90;;;;;;5050356;28;20535;-63
2022/12/22 06:13:07;;;;;;;350.67;332.33;;;7.90;99.90;;;;;;5050763;28;20384;-65
2022/12/22 06:15:33;;;;;;;361.87;343.30;;;7.90;99.90;;;;;;5050961;28;20683;-65
2022/12/22 06:17:58;;;;;;;350.77;332.90;;;7.90;99.90;;;;;;5069667;28;20449;-66
2022/12/22 06:20:24;;;;;;;356.07;337.87;;;7.90;99.90;;;;;;5051705;28;20877;-66
2022/12/22 06:22:50;;;;;;;380.65;360.88;;;8.00;99.90;;;;;;5051385;28;20830;-66
2022/12/22 06:25:15;;;;;;;389.90;369.85;;;8.00;99.90;;;;;;5070051;28;20391;-67
2022/12/22 06:27:41;;;;;;;381.58;362.02;;;8.00;99.90;;;;;;5052292;28;20498;-66
2022/12/22 06:30:07;;;;;;;382.52;362.55;;;8.00;99.90;;;;;;5053217;28;20602;-66
2022/12/22 06:32:37;;;;;;;377.40;357.80;;;8.00;99.90;;;;;;5051703;28;20384;-66
2022/12/22 06:35:04;;;;;;;362.75;343.98;;;7.90;99.90;;;;;;5067650;28;20687;-66
2022/12/22 06:37:29;;;;;;;344.90;327.10;;;7.90;99.90;;;;;;5049719;28;20372;-64
2022/12/22 06:39:54;;;;;;;367.63;348.20;;;8.00;99.90;;;;;;5066653;28;20446;-64
2022/12/22 06:45:05;;;;;;;397.27;376.85;;;8.10;99.90;;;;;;5067771;28;20671;-64
2022/12/22 06:47:30;;;;;;;396.77;376.50;;;8.10;99.90;;;;;;5049692;28;20372;-64
2022/12/22 06:49:56;;;;;;;407.40;386.17;;;8.10;99.90;;;;;;5069900;28;20457;-64
2022/12/22 06:52:21;;;;;;;398.70;378.37;;;8.20;99.90;;;;;;5050061;28;20408;-65
2022/12/22 06:54:47;;;;;;;392.25;372.10;;;8.20;99.90;;;;;;5049007;28;20372;-65
2022/12/22 06:57:12;;;;;;;376.73;357.50;;;8.20;99.90;;;;;;5047655;28;20467;-64
2022/12/22 06:59:38;;;;;;;388.27;368.63;;;8.30;99.90;;;;;;5043179;28;20690;-64
2022/12/22 07:02:03;;;;;;;382.85;363.35;;;8.20;99.90;;;;;;5044532;28;20468;-65
2022/12/22 07:04:30;;;;;;;377.80;358.67;;;8.20;99.90;;;;;;5059807;28;20392;-65
2022/12/22 07:06:56;;;;;;;382.77;363.27;;;8.20;99.90;;;;;;5057057;28;20667;-65
2022/12/22 07:09:21;;;;;;;387.20;367.42;;;8.20;99.90;;;;;;5039714;28;20749;-64
2022/12/22 07:11:47;;;;;;;402.95;382.23;;;8.10;99.90;;;;;;5038678;28;20387;-65
2022/12/22 07:14:12;;;;;;;381.83;362.17;;;8.10;99.90;;;;;;5041487;28;20371;-63
2022/12/22 07:16:38;;;;;;;384.37;364.67;;;8.20;99.90;;;;;;5042614;28;20612;-65
2022/12/22 07:19:03;;;;;;;398.83;378.52;;;8.20;99.90;;;;;;5043170;28;20478;-65
2022/12/22 07:21:29;;;;;;;392.70;372.73;;;8.30;99.90;;;;;;5043188;28;20564;-65
2022/12/22 07:23:55;;;;;;;391.37;371.60;;;8.30;99.90;;;;;;5042641;28;20491;-64
2022/12/22 07:26:20;;;;;;;411.60;390.20;;;8.40;99.90;;;;;;5041919;28;20395;-64
2022/12/22 07:28:46;;;;;;;402.40;381.90;;;8.40;99.90;;;;;;5039052;28;20391;-64
2022/12/22 07:31:14;;;;;;;424.42;402.75;;;8.40;99.90;;;;;;5040497;28;20659;-64
2022/12/22 07:33:40;;;;;;;426.75;404.92;;;8.40;99.90;;;;;;5040166;28;20562;-64
2022/12/22 07:36:16;;;;;;;428.58;406.48;;;8.50;99.90;;;;;;5058256;28;20387;-64
2022/12/22 07:38:44;;;;;;;432.95;410.40;;;8.50;99.90;;;;;;5038236;28;20419;-64
2022/12/22 07:43:57;;;;;;;419.77;398.45;;;8.50;99.90;;;;;;5051212;28;20650;-64
2022/12/22 07:46:23;;;;;;;430.63;408.50;;;8.50;99.90;;;;;;5036696;28;20509;-64
2022/12/22 07:51:35;;;;;;;440.17;417.35;;;8.50;99.90;;;;;;5050378;28;20444;-64
2022/12/22 07:54:04;;;;;;;422.42;400.33;;;8.40;99.90;;;;;;5033082;28;20473;-64
2022/12/22 07:56:29;;;;;;;434.05;411.85;;;8.40;99.90;;;;;;5053420;28;20514;-64
2022/12/22 07:58:55;;;;;;;421.98;399.90;;;8.30;99.90;;;;;;5055350;28;20486;-64
2022/12/22 08:01:20;;;;;;;413.60;391.77;;;8.30;99.90;;;;;;5038059;28;20426;-64
2022/12/22 08:03:46;;;;;;;420.63;398.63;;;8.30;99.90;;;;;;5038898;28;20685;-64
2022/12/22 08:06:11;;;;;;;423.80;401.87;;;8.30;99.90;;;;;;5035858;28;20511;-65
2022/12/22 08:08:37;;;;;;;415.50;393.92;;;8.30;99.90;;;;;;5034547;28;20976;-65
2022/12/22 08:11:03;;;;;;;426.63;404.60;;;8.30;99.90;;;;;;5033354;28;20537;-65
2022/12/22 08:13:29;;;;;;;420.83;399.17;;;8.40;99.90;;;;;;5031434;28;20380;-65
2022/12/22 08:16:00;;;;;;;421.30;399.85;;;8.40;99.90;;;;;;5033785;28;20380;-64
2022/12/22 08:18:26;;;;;;;428.52;406.15;;;8.40;99.90;;;;;;5035011;28;20379;-64
2022/12/22 08:20:51;;;;;;;424.95;403.15;;;8.50;99.90;;;;;;5037008;28;20532;-65
2022/12/22 08:23:17;;;;;;;425.43;403.60;;;8.50;99.90;;;;;;5038305;28;20827;-65
2022/12/22 08:25:44;;;;;;;416.05;394.85;;;8.40;99.90;;;;;;5038414;28;20795;-65
2022/12/22 08:28:10;;;;;;;425.90;403.58;;;8.40;99.90;;;;;;5040088;28;20442;-65
2022/12/22 08:30:37;;;;;;;423.17;401.48;;;8.30;99.90;;;;;;5038550;28;20408;-64
2022/12/22 08:33:02;;;;;;;432.07;409.80;;;8.30;99.90;;;;;;5039633;28;20457;-65
2022/12/22 08:35:28;;;;;;;424.60;402.37;;;8.40;99.90;;;;;;5054587;28;20677;-64
2022/12/22 08:37:54;;;;;;;432.90;410.50;;;8.40;99.90;;;;;;5035824;28;20388;-64
2022/12/22 08:40:23;;;;;;;432.80;410.30;;;8.40;99.90;;;;;;5035298;28;20813;-64
2022/12/22 08:42:53;;;;;;;425.88;403.77;;;8.40;99.90;;;;;;5034219;28;20393;-64
2022/12/22 08:45:19;;;;;;;420.98;399.10;;;8.30;99.90;;;;;;5037797;28;20382;-64
2022/12/22 08:47:44;;;;;;;416.75;394.92;;;8.40;99.90;;;;;;5035766;28;20395;-64
2022/12/22 08:50:10;;;;;;;441.47;418.23;;;8.30;99.90;;;;;;5054386;28;20782;-64
2022/12/22 08:52:36;;;;;;;425.17;402.87;;;8.30;99.90;;;;;;5035526;28;20577;-65
2022/12/22 08:55:02;;;;;;;430.80;408.17;;;8.30;99.90;;;;;;5051724;28;20429;-64
2022/12/22 08:57:28;;;;;;;428.07;405.83;;;8.30;99.90;;;;;;5036681;28;20380;-64
2022/12/22 08:59:53;;;;;;;418.13;396.48;;;8.30;99.90;;;;;;5036106;28;20440;-65
2022/12/22 09:02:19;;;;;;;413.17;391.57;;;8.30;99.90;;;;;;5033679;28;20767;-64
2022/12/22 09:04:44;;;;;;;394.93;374.63;;;8.30;99.90;;;;;;5033375;28;20439;-64
2022/12/22 09:07:10;;;;;;;398.53;378.10;;;8.30;99.90;;;;;;5027001;28;20579;-64
2022/12/22 09:09:36;;;;;;;402.73;381.47;;;8.20;99.90;;;;;;5028625;28;20413;-64
2022/12/22 09:12:02;;;;;;;388.02;368.05;;;8.20;99.90;;;;;;5026266;28;20385;-64
2022/12/22 09:14:29;;;;;;;369.48;350.17;;;8.20;99.90;;;;;;5024497;28;20770;-64
2022/12/22 09:16:54;;;;;;;367.63;348.33;;;8.20;99.90;;;;;;5026169;28;20393;-64
2022/12/22 09:19:20;;;;;;;376.48;356.80;;;8.20;99.90;;;;;;5024292;28;20458;-64
2022/12/22 09:21:46;;;;;;;375.37;355.67;;;8.30;99.90;;;;;;5022915;28;20397;-64
2022/12/22 09:24:11;;;;;;;381.67;361.80;;;8.40;99.90;;;;;;5023959;28;20768;-64
2022/12/22 09:26:37;;;;;;;353.20;334.90;;;8.30;99.90;;;;;;5021888;28;20566;-64
2022/12/22 09:29:03;;;;;;;349.87;331.23;;;8.30;99.90;;;;;;5022973;28;20603;-64
2022/12/22 09:31:28;;;;;;;317.40;301.10;;;8.40;99.90;;;;;;5024962;28;20381;-64
2022/12/22 09:33:55;;;;;;;302.83;287.07;;;8.40;99.90;;;;;;5023873;28;20400;-64
2022/12/22 09:36:26;;;;;;;300.27;284.77;;;8.40;99.90;;;;;;5028132;28;20404;-64
2022/12/22 09:38:52;;;;;;;327.63;310.63;;;8.40;99.90;;;;;;5028257;28;21028;-64
2022/12/22 09:41:22;;;;;;;318.15;301.33;;;8.50;99.90;;;;;;5029672;28;20997;-64
2022/12/22 09:43:48;;;;;;;296.55;281.38;;;8.50;99.90;;;;;;5026831;28;20382;-64
2022/12/22 09:46:26;;;;;;;323.37;306.77;;;8.60;99.90;;;;;;5024812;28;20743;-64
2022/12/22 09:48:52;;;;;;;370.35;351.08;;;8.70;99.90;;;;;;5024816;28;20455;-64
2022/12/22 09:51:19;;;;;;;385.35;365.13;;;8.60;99.90;;;;;;5027310;28;20385;-64
2022/12/22 09:53:49;;;;;;;375.90;356.10;;;8.60;99.90;;;;;;5027144;28;20686;-64
2022/12/22 09:56:16;;;;;;;385.40;364.90;;;8.60;99.90;;;;;;5029075;28;20374;-65
2022/12/22 09:58:43;;;;;;;390.00;369.40;;;8.60;99.90;;;;;;5030789;28;20667;-64
2022/12/22 10:01:38;;;;;;;396.50;375.60;;;8.60;99.90;;;;;;5033820;28;20390;-64
2022/12/22 10:04:12;;;;;;;363.10;343.92;;;8.50;99.90;;;;;;5034601;28;20385;-65
2022/12/22 10:06:49;;;;;;;399.27;378.17;;;8.60;99.90;;;;;;5041271;28;20424;-64
2022/12/22 10:09:28;;;;;;;384.42;364.10;;;8.60;99.90;;;;;;5057762;28;20736;-64
2022/12/22 10:11:56;;;;;;;363.00;343.83;;;8.60;99.90;;;;;;5036377;28;20773;-64
2022/12/22 10:14:33;;;;;;;378.42;358.40;;;8.60;99.90;;;;;;5052086;28;20606;-64
2022/12/22 10:17:19;;;;;;;377.30;357.33;;;8.60;99.90;;;;;;5033548;28;20387;-64
2022/12/22 10:19:46;;;;;;;400.05;378.95;;;8.60;99.90;;;;;;5049603;28;20678;-64
2022/12/22 10:22:23;;;;;;;394.38;373.70;;;8.60;99.90;;;;;;5049987;28;20670;-65
2022/12/22 10:24:48;;;;;;;376.77;356.65;;;8.60;99.90;;;;;;5031168;28;20598;-65
2022/12/22 10:27:14;;;;;;;377.65;357.92;;;8.60;99.90;;;;;;5047609;28;20463;-64
2022/12/22 10:29:40;;;;;;;382.33;362.30;;;8.60;99.90;;;;;;5030662;28;20398;-64
2022/12/22 10:32:15;;;;;;;394.40;373.95;;;8.60;99.90;;;;;;5030920;28;20693;-65
2022/12/22 10:35:03;;;;;;;393.97;373.47;;;8.60;99.90;;;;;;5034497;28;20415;-65
2022/12/22 10:37:33;;;;;;;394.27;373.95;;;8.60;99.90;;;;;;5038417;28;20427;-65
2022/12/22 10:40:13;;;;;;;405.73;384.67;;;8.60;99.90;;;;;;5038210;28;20664;-64
2022/12/22 10:42:44;;;;;;;430.85;408.30;;;8.60;99.90;;;;;;5058921;28;20475;-64
2022/12/22 10:45:20;;;;;;;435.80;413.10;;;8.70;99.90;;;;;;5039679;28;20679;-65
2022/12/22 10:47:48;;;;;;;405.93;385.13;;;8.70;99.90;;;;;;5039010;28;20410;-64
2022/12/22 10:50:14;;;;;;;401.98;381.45;;;8.70;99.90;;;;;;5038461;28;20383;-65
2022/12/22 10:52:39;;;;;;;404.95;384.20;;;8.70;99.90;;;;;;5037542;28;20402;-65
2022/12/22 10:55:17;;;;;;;419.63;398.03;;;8.70;99.90;;;;;;5038252;28;20459;-65
2022/12/22 10:57:42;;;;;;;449.17;425.80;;;8.70;99.90;;;;;;5035955;28;20383;-64
2022/12/22 11:00:29;;;;;;;443.15;420.25;;;8.70;99.90;;;;;;5034871;28;20546;-64
2022/12/22 11:02:57;;;;;;;444.52;421.67;;;8.80;99.90;;;;;;5032674;28;20669;-64
2022/12/22 11:05:23;;;;;;;454.55;431.25;;;8.80;99.90;;;;;;5049481;28;20584;-64
2022/12/22 11:07:49;;;;;;;462.77;438.65;;;9.00;99.90;;;;;;5032716;28;20415;-64
2022/12/22 11:10:40;;;;;;;421.47;399.70;;;9.10;99.90;;;;;;5051001;28;20449;-64
2022/12/22 11:13:27;;;;;;;451.98;428.80;;;9.20;99.90;;;;;;5033050;28;20398;-64
2022/12/22 11:16:22;;;;;;;442.07;418.97;;;9.40;99.90;;;;;;5034238;28;20426;-64
2022/12/22 11:19:01;;;;;;;424.63;402.25;;;9.50;99.90;;;;;;5036351;28;21031;-65
2022/12/22 11:21:49;;;;;;;426.85;404.90;;;9.60;99.90;;;;;;5036590;28;20679;-65
2022/12/22 11:24:37;;;;;;;369.55;350.85;;;9.70;99.90;;;;;;5038706;28;20492;-64
2022/12/22 11:27:31;;;;;;;365.77;347.40;;;9.50;99.90;;;;;;5036762;28;20889;-64
2022/12/22 11:30:08;;;;;;;364.42;346.00;;;9.50;99.90;;;;;;5053594;28;20387;-64
2022/12/22 11:33:10;;;;;;;382.42;363.00;;;9.40;99.90;;;;;;5037592;28;20414;-65
2022/12/22 11:35:55;;;;;;;385.85;366.50;;;9.30;99.90;;;;;;5039472;28;20807;-66
2022/12/22 11:38:44;;;;;;;389.05;369.30;;;9.30;99.90;;;;;;5044759;28;20390;-66
2022/12/22 11:41:59;;;;;;;399.50;379.00;;;9.30;99.90;;;;;;5045130;28;20742;-66
2022/12/22 11:44:39;;;;;;;417.15;395.67;;;9.30;99.90;;;;;;5045165;28;20529;-53
2022/12/22 11:47:39;;;;;;;424.20;402.35;;;9.40;99.90;;;;;;5044600;28;20842;-66
2022/12/22 11:50:35;;;;;;;439.65;416.83;;;9.50;99.90;;;;;;5007806;28;20422;-66
2022/12/22 11:53:36;;;;;;;328.08;311.25;;;9.80;99.90;;;;;;5040195;28;20421;-66
2022/12/22 11:56:16;;;;;;;282.73;268.05;;;10.00;99.90;;;;;;5001139;28;20392;-66
2022/12/22 11:59:16;;;;;;;196.50;186.07;;;10.10;99.90;;;;;;5042142;28;20782;-66
2022/12/22 12:02:01;;;;;;;195.75;185.25;;;10.00;99.90;;;;;;5042832;28;20636;-66
2022/12/22 12:04:46;;;;;;;172.88;163.35;;;10.20;99.90;;;;;;5039612;28;21107;-66
2022/12/22 12:07:28;;;;;;;169.45;160.00;;;10.30;99.90;;;;;;5057648;28;20439;-66
2022/12/22 12:10:16;;;;;;;161.10;152.25;;;10.30;99.90;;;;;;5043038;28;20392;-66
2022/12/22 12:12:48;;;;;;;154.43;146.27;;;10.10;99.90;;;;;;5057608;28;20368;-66
2022/12/22 12:15:23;;;;;;;166.27;157.43;;;10.00;99.90;;;;;;5054742;28;20386;-66
2022/12/22 12:18:07;;;;;;;176.53;166.87;;;9.90;99.90;;;;;;5053248;28;20380;-66
2022/12/22 12:20:53;;;;;;;201.55;190.80;;;9.90;99.90;;;;;;5056843;28;20383;-66
2022/12/22 12:23:38;;;;;;;165.18;156.35;;;10.00;99.90;;;;;;5042309;28;21035;-66
2022/12/22 12:26:23;;;;;;;162.20;153.40;;;10.20;99.90;;;;;;5040171;28;20430;-67
2022/12/22 12:29:08;;;;;;;138.23;130.38;;;10.40;99.90;;;;;;5063696;28;21014;-66
2022/12/22 12:31:44;;;;;;;135.82;128.38;;;10.60;99.90;;;;;;5062946;28;20656;-66
2022/12/22 12:34:13;;;;;;;123.75;116.90;;;10.90;99.90;;;;;;5043154;28;20395;-66
2022/12/22 12:36:46;;;;;;;125.95;119.03;;;11.00;99.90;;;;;;5059223;28;20391;-66
2022/12/22 12:39:38;;;;;;;159.05;150.27;;;11.00;99.90;;;;;;5061216;28;20383;-66
2022/12/22 12:42:22;;;;;;;151.93;143.55;;;10.80;99.90;;;;;;5042502;28;20675;-66
2022/12/22 12:44:51;;;;;;;146.32;138.25;;;10.70;99.90;;;;;;5039545;28;20383;-66
2022/12/22 12:47:27;;;;;;;126.50;119.60;;;10.50;99.90;;;;;;5037695;28;21038;-66
2022/12/22 12:50:01;;;;;;;125.93;119.05;;;10.30;99.90;;;;;;5039630;28;20526;-66
2022/12/22 12:52:39;;;;;;;125.57;118.35;;;10.20;99.90;;;;;;5039781;28;20465;-66
2022/12/22 12:55:28;;;;;;;119.30;112.55;;;10.20;99.90;;;;;;5039227;28;20388;-66
2022/12/22 12:57:55;;;;;;;115.57;109.00;;;10.10;99.90;;;;;;5040626;28;20398;-66
2022/12/22 13:00:30;;;;;;;110.10;103.97;;;10.00;99.90;;;;;;5041081;28;20478;-66
2022/12/22 13:02:57;;;;;;;111.90;105.70;;;10.00;99.90;;;;;;5059179;28;20434;-66
2022/12/22 13:05:31;;;;;;;117.70;111.00;;;10.30;99.90;;;;;;5041636;28;20402;-66
2022/12/22 13:08:03;;;;;;;119.30;112.80;;;10.40;99.90;;;;;;5058067;28;20399;-66
2022/12/22 13:10:29;;;;;;;125.70;118.75;;;10.40;99.90;;;;;;5040192;28;20384;-66
2022/12/22 13:12:56;;;;;;;146.63;138.57;;;10.50;99.90;;;;;;5056338;28;20381;-66
2022/12/22 13:15:37;;;;;;;175.95;166.60;;;10.70;99.90;;;;;;5039447;28;20391;-66
2022/12/22 13:18:22;;;;;;;162.73;154.18;;;10.80;99.90;;;;;;5024524;28;20492;-65
2022/12/22 13:20:56;;;;;;;178.60;169.02;;;10.80;99.90;;;;;;5021515;28;20397;-65
2022/12/22 13:23:22;;;;;;;194.35;184.20;;;11.00;99.90;;;;;;5015947;28;20813;-66
2022/12/22 13:25:54;;;;;;;181.00;171.25;;;11.20;99.90;;;;;;5016158;28;20441;-65
2022/12/22 13:28:22;;;;;;;181.02;171.07;;;11.30;99.90;;;;;;5016185;28;20405;-66
2022/12/22 13:30:51;;;;;;;180.98;171.23;;;11.10;99.90;;;;;;5018266;28;20479;-66
2022/12/22 13:33:19;;;;;;;179.43;169.98;;;11.00;99.90;;;;;;5021392;28;20381;-66
2022/12/22 13:35:47;;;;;;;185.85;175.55;;;11.00;99.90;;;;;;5020799;28;20389;-66
2022/12/22 13:38:35;;;;;;;184.85;174.95;;;11.00;99.90;;;;;;5018810;28;20397;-65
2022/12/22 13:41:17;;;;;;;180.20;170.55;;;11.10;99.90;;;;;;5035391;28;20381;-65
2022/12/22 13:43:50;;;;;;;187.52;177.43;;;11.30;99.90;;;;;;5017703;28;20397;-65
2022/12/22 13:46:15;;;;;;;187.20;177.07;;;11.50;99.90;;;;;;5015634;28;20890;-66
2022/12/22 13:48:48;;;;;;;167.15;158.15;;;11.40;99.90;;;;;;5011285;28;21050;-66
2022/12/22 13:51:17;;;;;;;182.93;172.93;;;11.30;99.90;;;;;;5010351;28;20389;-66
2022/12/22 13:53:50;;;;;;;170.77;161.43;;;11.30;99.90;;;;;;5010867;28;20680;-66
2022/12/22 13:56:21;;;;;;;166.90;157.82;;;11.20;99.90;;;;;;5045796;28;20402;-66
2022/12/22 13:58:57;;;;;;;178.75;169.13;;;11.30;99.90;;;;;;5016177;28;20396;-66
2022/12/22 14:01:23;;;;;;;187.43;177.32;;;11.30;99.90;;;;;;5036443;28;20381;-66
2022/12/22 14:04:01;;;;;;;174.97;165.30;;;11.30;99.90;;;;;;5024938;28;20392;-66
2022/12/22 14:06:36;;;;;;;160.47;151.77;;;11.30;99.90;;;;;;5025335;28;20420;-66
2022/12/22 14:09:23;;;;;;;168.55;159.32;;;11.20;99.90;;;;;;5024774;28;20873;-66
2022/12/22 14:12:00;;;;;;;164.48;155.60;;;11.10;99.90;;;;;;5024401;28;20381;-66
2022/12/22 14:14:36;;;;;;;157.20;148.70;;;11.10;99.90;;;;;;5025768;28;21067;-66
2022/12/22 14:17:02;;;;;;;161.40;152.50;;;11.00;99.90;;;;;;5028507;28;20833;-65
2022/12/22 14:19:34;;;;;;;161.60;152.73;;;11.00;99.90;;;;;;5028199;28;20381;-65
2022/12/22 14:22:07;;;;;;;159.00;150.13;;;10.90;99.90;;;;;;5030570;28;20416;-65
2022/12/22 14:24:53;;;;;;;159.53;150.80;;;10.80;99.90;;;;;;5030148;28;20446;-64
2022/12/22 14:27:43;;;;;;;156.57;147.75;;;10.60;99.90;;;;;;5029381;28;20481;-65
2022/12/22 14:30:20;;;;;;;156.10;147.57;;;10.50;99.90;;;;;;5026569;28;20382;-64
2022/12/22 14:32:51;;;;;;;149.55;141.18;;;10.40;99.90;;;;;;5041654;28;20386;-64
2022/12/22 14:35:19;;;;;;;153.60;145.00;;;10.30;99.90;;;;;;5042405;28;20405;-64
2022/12/22 14:37:50;;;;;;;163.17;154.40;;;10.30;99.90;;;;;;5018299;28;20385;-64
2022/12/22 14:40:39;;;;;;;154.27;145.98;;;10.20;99.90;;;;;;5016261;28;20675;-64
2022/12/22 14:43:18;;;;;;;172.20;162.85;;;10.00;99.90;;;;;;5033254;28;20455;-64
2022/12/22 14:45:45;;;;;;;159.32;150.73;;;10.00;99.90;;;;;;5014139;28;20801;-64
2022/12/22 14:48:19;;;;;;;167.88;158.70;;;9.90;99.90;;;;;;5020097;28;20413;-64
2022/12/22 14:50:49;;;;;;;155.10;146.57;;;10.00;99.90;;;;;;5018326;28;20389;-64
2022/12/22 14:53:21;;;;;;;161.00;152.18;;;9.90;99.90;;;;;;5031816;28;20535;-64
2022/12/22 14:55:51;;;;;;;165.32;156.38;;;9.90;99.90;;;;;;5013545;28;20780;-64
2022/12/22 14:58:28;;;;;;;157.88;149.30;;;9.80;99.90;;;;;;5046686;28;20510;-64
2022/12/22 15:01:14;;;;;;;140.57;132.65;;;9.80;99.90;;;;;;5033950;28;20683;-64
2022/12/22 15:03:40;;;;;;;146.40;138.50;;;9.80;99.90;;;;;;5016845;28;20534;-64
2022/12/22 15:06:27;;;;;;;145.02;137.13;;;9.80;99.90;;;;;;5017354;28;20528;-64
2022/12/22 15:09:10;;;;;;;158.17;149.43;;;9.90;99.90;;;;;;5018543;28;20431;-64
2022/12/22 15:11:39;;;;;;;147.23;139.05;;;9.80;99.90;;;;;;5016629;28;20385;-64
2022/12/22 15:14:14;;;;;;;153.93;145.68;;;9.80;99.90;;;;;;5032229;28;20386;-64
2022/12/22 15:16:40;;;;;;;151.68;143.32;;;9.80;99.90;;;;;;5012009;28;20447;-64
2022/12/22 15:19:06;;;;;;;134.80;127.38;;;9.70;99.90;;;;;;5011399;28;20644;-64
2022/12/22 15:21:33;;;;;;;121.53;114.73;;;9.60;99.90;;;;;;5010741;28;20393;-66
2022/12/22 15:23:59;;;;;;;123.63;116.93;;;9.50;99.90;;;;;;5008677;28;20644;-64
2022/12/22 15:26:25;;;;;;;131.00;123.70;;;9.40;99.90;;;;;;5014161;28;20790;-64
2022/12/22 15:28:51;;;;;;;128.80;121.53;;;9.40;99.90;;;;;;5016113;28;20703;-63
2022/12/22 15:31:16;;;;;;;121.23;114.57;;;9.40;99.90;;;;;;5018005;28;21007;-65
2022/12/22 15:33:43;;;;;;;130.35;123.00;;;9.40;99.90;;;;;;5020121;28;21010;-64
2022/12/22 15:36:11;;;;;;;124.43;117.50;;;9.40;99.90;;;;;;5021258;28;20418;-65
2022/12/22 15:38:38;;;;;;;125.38;118.32;;;9.40;99.90;;;;;;5021921;28;20477;-64
2022/12/22 15:41:04;;;;;;;123.07;116.28;;;9.40;99.90;;;;;;5018493;28;20588;-64
2022/12/22 15:43:29;;;;;;;134.10;126.78;;;9.30;99.90;;;;;;5020417;28;20403;-64
2022/12/22 15:45:55;;;;;;;131.63;124.15;;;9.30;99.90;;;;;;5036010;28;20382;-64
2022/12/22 15:48:26;;;;;;;135.43;127.82;;;9.30;99.90;;;;;;5014833;28;20610;-64
2022/12/22 15:50:54;;;;;;;129.80;122.55;;;9.30;99.90;;;;;;5045594;28;20412;-64
2022/12/22 15:53:20;;;;;;;138.40;130.83;;;9.30;99.90;;;;;;5017447;28;20492;-64
2022/12/22 15:55:48;;;;;;;141.00;133.20;;;9.30;99.90;;;;;;5018321;28;20476;-64
2022/12/22 15:58:18;;;;;;;148.18;139.60;;;9.40;99.90;;;;;;5034439;28;20396;-64
2022/12/22 16:00:44;;;;;;;139.38;131.85;;;9.40;99.90;;;;;;5017438;28;20454;-64
2022/12/22 16:03:10;;;;;;;146.63;138.83;;;9.40;99.90;;;;;;5034968;28;20397;-64
2022/12/22 16:05:37;;;;;;;145.93;138.18;;;9.40;99.90;;;;;;5015743;28;20389;-64
2022/12/22 16:08:04;;;;;;;146.40;138.47;;;9.40;99.90;;;;;;4996327;28;20744;-64
2022/12/22 16:10:32;;;;;;;152.48;144.20;;;9.30;99.90;;;;;;4997640;28;20387;-64
2022/12/22 16:13:01;;;;;;;136.90;129.25;;;9.30;99.90;;;;;;5016385;28;20387;-64
2022/12/22 16:15:29;;;;;;;134.27;126.53;;;9.10;99.90;;;;;;5015908;28;20574;-64
2022/12/22 16:17:56;;;;;;;128.45;120.95;;;9.10;99.90;;;;;;5000653;28;20614;-64